Terminal Aerodrome Forecast
Issued by NWS

Home | Current Version | Previous Version | Text Only | Print | Product List | Glossary On
Versions: 1 2 3 4 5 6 7 8 9 10 11 12 13 14 15 16 17 18
000
FTUS42 KMLB 290531
TAFISM
TAF
KISM 290531Z 2906/3006 09004KT P6SM FEW020 BKN250
     FM290900 05003KT P6SM FEW010 SCT250
     FM291500 08007KT P6SM SCT030 SCT250
     FM291900 09010KT P6SM VCTS SCT040CB SCT120 BKN250
     FM292300 08006KT P6SM SCT040 SCT120 BKN250=

USA.gov is the U.S. government's official web portal to all federal, state and local government web resources and services.